Time;durP1;ratioP1;P1;durP2;ratioP2;P2;SDS_P1;SDS_P2;PMS_P1;PMS_P2;Temp;Humidity;BMP_temperature;BMP_pressure;BME280_temperature;BME280_humidity;BME280_pressure;Samples;Min_cycle;Max_cycle;Signal;HPM_P1;HPM_P2
2021/03/11 00:00:01;;;;;;;24.95;17.67;;;9.10;99.90;;;;;;2096978;28;20482;-74
2021/03/11 00:01:02;;;;;;;22.08;18.13;;;9.10;99.90;;;;;;2097417;28;20020;-74
2021/03/11 00:02:02;;;;;;;21.40;16.77;;;9.20;99.90;;;;;;2097360;28;20087;-74
2021/03/11 00:03:05;;;;;;;18.75;16.08;;;9.10;99.90;;;;;;2096964;28;20052;-74
2021/03/11 00:04:06;;;;;;;22.20;17.27;;;9.10;99.90;;;;;;2096968;28;20487;-74
2021/03/11 00:05:10;;;;;;;22.90;17.38;;;9.10;99.90;;;;;;2096966;28;20017;-74
2021/03/11 00:06:10;;;;;;;19.80;16.65;;;9.10;99.90;;;;;;2096973;28;20025;-75
2021/03/11 00:07:11;;;;;;;19.83;16.35;;;9.10;99.90;;;;;;2096692;28;20039;-74
2021/03/11 00:08:12;;;;;;;21.58;17.02;;;9.10;99.90;;;;;;2096403;28;20035;-74
2021/03/11 00:09:12;;;;;;;19.88;17.05;;;9.10;99.90;;;;;;2095724;28;20112;-74
2021/03/11 00:10:13;;;;;;;21.27;17.80;;;9.00;99.90;;;;;;2096195;28;20021;-74
2021/03/11 00:11:14;;;;;;;22.08;16.88;;;9.10;99.90;;;;;;2097266;28;20621;-74
2021/03/11 00:12:14;;;;;;;20.25;16.25;;;9.00;99.90;;;;;;2097056;28;20020;-74
2021/03/11 00:13:15;;;;;;;22.25;16.92;;;9.10;99.90;;;;;;2096170;28;20518;-74
2021/03/11 00:14:16;;;;;;;23.83;18.02;;;9.00;99.90;;;;;;2087942;28;20024;-74
2021/03/11 00:15:20;;;;;;;23.92;17.90;;;9.00;99.90;;;;;;2095744;28;20013;-74
2021/03/11 00:16:20;;;;;;;21.48;16.77;;;9.10;99.90;;;;;;2096684;28;20024;-74
2021/03/11 00:17:21;;;;;;;22.38;17.63;;;9.10;99.90;;;;;;2096798;28;20055;-74
2021/03/11 00:18:22;;;;;;;22.13;16.15;;;9.10;99.90;;;;;;2096897;28;20055;-74
2021/03/11 00:19:22;;;;;;;19.77;16.73;;;9.10;99.90;;;;;;2096974;28;20021;-74
2021/03/11 00:20:25;;;;;;;21.63;16.63;;;9.10;99.90;;;;;;2097049;28;20051;-74
2021/03/11 00:21:26;;;;;;;23.80;17.52;;;9.10;99.90;;;;;;2096880;28;20017;-74
2021/03/11 00:22:26;;;;;;;20.88;17.13;;;9.10;99.90;;;;;;2096503;28;20472;-74
2021/03/11 00:23:27;;;;;;;18.85;15.32;;;9.00;99.90;;;;;;2096507;28;20459;-74
2021/03/11 00:24:28;;;;;;;21.40;16.95;;;9.10;99.90;;;;;;2097037;28;20055;-74
2021/03/11 00:25:31;;;;;;;20.58;16.10;;;9.10;99.90;;;;;;2096748;28;20043;-74
2021/03/11 00:26:32;;;;;;;21.15;17.15;;;9.10;99.90;;;;;;2096247;28;20073;-74
2021/03/11 00:27:32;;;;;;;23.65;16.98;;;9.10;99.90;;;;;;2096048;28;20054;-74
2021/03/11 00:28:33;;;;;;;20.20;16.10;;;9.10;99.90;;;;;;2096612;28;20033;-74
2021/03/11 00:29:34;;;;;;;21.48;16.25;;;9.10;99.90;;;;;;2096509;28;20023;-74
2021/03/11 00:30:34;;;;;;;19.13;16.60;;;9.10;99.90;;;;;;2095995;28;20059;-74
2021/03/11 00:31:35;;;;;;;21.00;16.60;;;9.10;99.90;;;;;;2096196;28;20017;-74
2021/03/11 00:32:36;;;;;;;19.52;16.88;;;9.10;99.90;;;;;;2097277;28;20021;-74
2021/03/11 00:33:37;;;;;;;20.35;16.02;;;9.10;99.90;;;;;;2096839;28;20105;-74
2021/03/11 00:34:38;;;;;;;21.10;16.98;;;9.10;99.90;;;;;;2097009;28;20495;-74
2021/03/11 00:35:39;;;;;;;20.42;17.10;;;9.20;99.90;;;;;;2096821;28;20031;-74
2021/03/11 00:36:39;;;;;;;21.75;16.83;;;9.10;99.90;;;;;;2096106;28;20100;-74
2021/03/11 00:37:41;;;;;;;20.85;15.82;;;9.20;99.90;;;;;;2095585;28;20041;-74
2021/03/11 00:38:42;;;;;;;22.75;16.77;;;9.20;99.90;;;;;;2096910;28;20025;-74
2021/03/11 00:39:42;;;;;;;20.63;16.85;;;9.20;99.90;;;;;;2096988;28;20495;-74
2021/03/11 00:40:43;;;;;;;17.88;15.68;;;9.20;99.90;;;;;;2097109;28;20066;-74
2021/03/11 00:41:44;;;;;;;20.00;15.60;;;9.20;99.90;;;;;;2096861;28;20488;-74
2021/03/11 00:42:45;;;;;;;21.73;15.88;;;9.10;99.90;;;;;;2096369;28;20364;-74
2021/03/11 00:43:46;;;;;;;18.92;15.23;;;9.20;99.90;;;;;;2096381;28;20059;-74
2021/03/11 00:44:46;;;;;;;20.10;16.38;;;9.10;99.90;;;;;;2096987;28;20021;-75
2021/03/11 00:45:49;;;;;;;21.58;16.27;;;9.20;99.90;;;;;;2096674;28;20389;-74
2021/03/11 00:46:49;;;;;;;21.45;17.15;;;9.20;99.90;;;;;;2096429;28;20020;-74
2021/03/11 00:47:50;;;;;;;21.30;16.33;;;9.20;99.90;;;;;;2096922;28;20630;-74
2021/03/11 00:48:51;;;;;;;19.00;15.98;;;9.20;99.90;;;;;;2096667;28;20067;-74
2021/03/11 00:49:51;;;;;;;22.05;15.68;;;9.20;99.90;;;;;;2096119;28;20459;-74
2021/03/11 00:50:52;;;;;;;19.98;15.85;;;9.20;99.90;;;;;;2088057;28;20056;-74
2021/03/11 00:51:52;;;;;;;18.08;15.15;;;9.20;99.90;;;;;;2096497;28;20560;-74
2021/03/11 00:52:53;;;;;;;24.10;16.73;;;9.20;99.90;;;;;;2096969;28;20100;-74
2021/03/11 00:53:53;;;;;;;20.08;15.57;;;9.20;99.90;;;;;;2096756;28;20044;-74
2021/03/11 00:54:54;;;;;;;20.63;15.57;;;9.20;99.90;;;;;;2096529;28;20028;-73
2021/03/11 00:55:55;;;;;;;22.77;17.13;;;9.20;99.90;;;;;;2096879;28;20025;-74
2021/03/11 00:56:55;;;;;;;20.20;16.08;;;9.20;99.90;;;;;;2096510;28;20029;-74
2021/03/11 00:57:56;;;;;;;18.92;15.85;;;9.20;99.90;;;;;;2096778;28;20028;-74
2021/03/11 00:58:56;;;;;;;21.02;16.90;;;9.20;99.90;;;;;;2096883;28;20043;-74
2021/03/11 00:59:57;;;;;;;20.13;16.77;;;9.20;99.90;;;;;;2096881;28;20048;-75
2021/03/11 01:00:57;;;;;;;20.20;15.50;;;9.20;99.90;;;;;;2097001;28;20078;-74
2021/03/11 01:01:58;;;;;;;22.67;16.10;;;9.20;99.90;;;;;;2096474;28;20040;-74
2021/03/11 01:03:00;;;;;;;22.23;16.15;;;9.20;99.90;;;;;;2096404;28;20093;-74
2021/03/11 01:04:00;;;;;;;18.75;14.18;;;9.20;99.90;;;;;;2096619;28;20021;-74
2021/03/11 01:05:02;;;;;;;19.50;15.75;;;9.20;99.90;;;;;;2096713;28;20357;-74
2021/03/11 01:06:03;;;;;;;20.75;16.23;;;9.20;99.90;;;;;;2096930;28;20435;-74
2021/03/11 01:07:04;;;;;;;22.40;16.88;;;9.20;99.90;;;;;;2096095;28;20135;-74
2021/03/11 01:08:05;;;;;;;20.42;16.73;;;9.20;99.90;;;;;;2096285;28;20078;-74
2021/03/11 01:09:06;;;;;;;19.55;15.60;;;9.20;99.90;;;;;;2096293;28;20020;-74
2021/03/11 01:10:08;;;;;;;20.08;16.10;;;9.20;99.90;;;;;;2096392;28;20024;-74
2021/03/11 01:11:08;;;;;;;20.52;16.73;;;9.20;99.90;;;;;;2095678;28;20017;-74
2021/03/11 01:12:12;;;;;;;21.05;16.85;;;9.20;99.90;;;;;;2095754;28;20021;-74
2021/03/11 01:13:12;;;;;;;19.20;15.48;;;9.20;99.90;;;;;;2096276;28;20024;-74
2021/03/11 01:14:13;;;;;;;21.63;16.20;;;9.10;99.90;;;;;;2096065;28;20584;-74
2021/03/11 01:15:14;;;;;;;20.73;16.85;;;9.20;99.90;;;;;;2087682;28;20030;-74
2021/03/11 01:16:15;;;;;;;20.73;16.60;;;9.10;99.90;;;;;;2096046;28;20387;-74
2021/03/11 01:17:15;;;;;;;20.80;15.98;;;9.10;99.90;;;;;;2096453;28;20592;-74
2021/03/11 01:18:16;;;;;;;19.05;16.25;;;9.20;99.90;;;;;;2096482;28;20049;-73
2021/03/11 01:19:17;;;;;;;21.63;15.80;;;9.10;99.90;;;;;;2096814;28;20024;-74
2021/03/11 01:20:19;;;;;;;23.60;16.10;;;9.20;99.90;;;;;;2096739;28;20048;-74
2021/03/11 01:21:19;;;;;;;20.52;16.80;;;9.20;99.90;;;;;;2096798;28;20025;-74
2021/03/11 01:22:20;;;;;;;21.38;16.50;;;9.10;99.90;;;;;;2096883;28;20471;-74
2021/03/11 01:23:20;;;;;;;20.85;16.38;;;9.10;99.90;;;;;;2096068;28;20414;-74
2021/03/11 01:24:21;;;;;;;19.52;15.52;;;9.10;99.90;;;;;;2096120;28;20048;-74
2021/03/11 01:25:22;;;;;;;21.55;15.35;;;9.10;99.90;;;;;;2096095;28;20089;-74
2021/03/11 01:26:22;;;;;;;21.52;16.35;;;9.10;99.90;;;;;;2087777;28;20033;-74
2021/03/11 01:27:23;;;;;;;21.10;15.85;;;9.10;99.90;;;;;;2087104;28;20021;-74
2021/03/11 01:28:24;;;;;;;21.05;16.27;;;9.10;99.90;;;;;;2087642;28;20396;-74
2021/03/11 01:29:24;;;;;;;18.30;15.95;;;9.10;99.90;;;;;;2096254;28;20021;-74
2021/03/11 01:30:25;;;;;;;24.70;17.30;;;9.10;99.90;;;;;;2096704;28;20028;-73
2021/03/11 01:31:28;;;;;;;21.58;16.30;;;9.10;99.90;;;;;;2096712;28;20021;-73
2021/03/11 01:32:29;;;;;;;19.50;16.00;;;9.10;99.90;;;;;;2096138;28;20024;-73
2021/03/11 01:33:29;;;;;;;18.75;15.13;;;9.00;99.90;;;;;;2095964;28;20016;-73
2021/03/11 01:34:30;;;;;;;24.45;17.80;;;9.10;99.90;;;;;;2096817;28;20020;-73
2021/03/11 01:35:31;;;;;;;19.83;14.98;;;9.10;99.90;;;;;;2096602;28;20078;-73
2021/03/11 01:36:31;;;;;;;21.13;16.38;;;9.10;99.90;;;;;;2096685;28;20028;-73
2021/03/11 01:37:32;;;;;;;18.95;15.40;;;9.10;99.90;;;;;;2096234;28;20039;-74
2021/03/11 01:38:32;;;;;;;21.98;16.08;;;9.10;99.90;;;;;;2096467;28;20039;-73
2021/03/11 01:39:33;;;;;;;21.65;16.65;;;9.10;99.90;;;;;;2096538;28;20616;-74
2021/03/11 01:40:34;;;;;;;20.27;15.45;;;9.10;99.90;;;;;;2096225;28;20028;-74
2021/03/11 01:41:35;;;;;;;20.17;15.18;;;9.10;99.90;;;;;;2097082;28;20028;-74
2021/03/11 01:42:36;;;;;;;21.00;16.38;;;9.10;99.90;;;;;;2096784;28;20067;-73
2021/03/11 01:43:36;;;;;;;21.20;15.88;;;9.10;99.90;;;;;;2095846;28;20024;-73
2021/03/11 01:44:37;;;;;;;20.75;15.73;;;9.10;99.90;;;;;;2087903;28;20111;-73
2021/03/11 01:45:38;;;;;;;19.65;14.75;;;9.10;99.90;;;;;;2095936;28;20020;-74
2021/03/11 01:46:39;;;;;;;19.70;15.45;;;9.10;99.90;;;;;;2095985;28;20021;-73
2021/03/11 01:47:39;;;;;;;18.38;15.32;;;9.10;99.90;;;;;;2095626;28;20602;-73
2021/03/11 01:48:40;;;;;;;19.45;15.75;;;9.10;99.90;;;;;;2096025;28;20033;-73
2021/03/11 01:49:41;;;;;;;20.45;16.05;;;9.00;99.90;;;;;;2097621;28;20024;-73
2021/03/11 01:50:41;;;;;;;19.88;15.07;;;9.10;99.90;;;;;;2098408;28;20364;-73
2021/03/11 01:51:42;;;;;;;17.92;15.07;;;9.10;99.90;;;;;;2097938;28;20032;-73
2021/03/11 01:52:43;;;;;;;22.30;16.52;;;9.00;99.90;;;;;;2098292;28;20498;-74
2021/03/11 01:53:45;;;;;;;18.88;15.63;;;9.00;99.90;;;;;;2097547;28;20031;-73
2021/03/11 01:54:46;;;;;;;21.50;15.63;;;9.10;99.90;;;;;;2097791;28;20522;-73
2021/03/11 01:55:47;;;;;;;24.33;16.30;;;9.10;99.90;;;;;;2098279;28;20031;-73
2021/03/11 01:56:47;;;;;;;19.80;15.77;;;9.00;99.90;;;;;;2097852;28;20688;-73
2021/03/11 01:57:48;;;;;;;18.83;14.75;;;9.00;99.90;;;;;;2098254;28;20063;-73
2021/03/11 01:58:49;;;;;;;19.98;15.70;;;9.10;99.90;;;;;;2098147;28;20031;-73
2021/03/11 01:59:51;;;;;;;19.88;14.77;;;9.00;99.90;;;;;;2098198;28;20643;-74
2021/03/11 02:00:53;;;;;;;21.25;15.68;;;9.00;99.90;;;;;;2098274;28;20418;-73
2021/03/11 02:01:55;;;;;;;18.17;14.88;;;9.00;99.90;;;;;;2097465;28;20033;-73
2021/03/11 02:02:56;;;;;;;19.00;15.00;;;9.00;99.90;;;;;;2089612;28;20043;-74
2021/03/11 02:03:57;;;;;;;17.90;15.40;;;9.00;99.90;;;;;;2097539;28;20430;-73
2021/03/11 02:04:58;;;;;;;19.80;15.55;;;9.10;99.90;;;;;;2097904;28;20044;-73
2021/03/11 02:05:58;;;;;;;20.98;15.70;;;9.00;99.90;;;;;;2098138;28;20422;-74
2021/03/11 02:06:59;;;;;;;19.88;14.93;;;9.10;99.90;;;;;;2097493;28;20102;-74
2021/03/11 02:07:59;;;;;;;18.55;14.02;;;9.00;99.90;;;;;;2097956;28;20031;-74
2021/03/11 02:09:02;;;;;;;19.13;13.95;;;9.10;99.90;;;;;;2098307;28;20630;-73
2021/03/11 02:10:05;;;;;;;19.08;14.00;;;9.10;99.90;;;;;;2098185;28;20016;-74
2021/03/11 02:11:11;;;;;;;21.52;14.95;;;9.10;99.90;;;;;;2097499;28;20027;-73
2021/03/11 02:12:22;;;;;;;19.48;13.98;;;9.10;99.90;;;;;;2089497;28;20500;-74
2021/03/11 02:13:30;;;;;;;19.48;14.00;;;9.10;99.90;;;;;;2090030;28;20652;-74
2021/03/11 02:14:49;;;;;;;18.80;14.45;;;9.10;99.90;;;;;;2097201;28;20031;-73
2021/03/11 02:16:00;;;;;;;19.27;15.02;;;9.10;99.90;;;;;;2097192;28;20036;-73
2021/03/11 02:17:04;;;;;;;18.42;14.55;;;9.10;99.90;;;;;;2097288;28;20016;-74
2021/03/11 02:18:16;;;;;;;16.23;13.30;;;9.10;99.90;;;;;;2097104;28;20700;-73
2021/03/11 02:23:48;;;;;;;16.42;12.98;;;9.00;99.90;;;;;;2098097;28;20032;-73
2021/03/11 02:25:16;;;;;;;16.70;13.23;;;9.00;99.90;;;;;;2098138;28;20368;-74
2021/03/11 02:26:39;;;;;;;17.95;12.82;;;9.00;99.90;;;;;;2098151;28;20017;-74
2021/03/11 02:27:56;;;;;;;16.65;12.52;;;9.00;99.90;;;;;;2096385;28;20051;-74
2021/03/11 02:29:07;;;;;;;16.20;11.85;;;9.00;99.90;;;;;;2097834;28;20032;-73
2021/03/11 02:30:08;;;;;;;16.75;12.63;;;9.10;99.90;;;;;;2097905;28;20028;-74
2021/03/11 02:31:09;;;;;;;16.13;11.48;;;9.10;99.90;;;;;;2097994;28;20032;-74
2021/03/11 02:32:12;;;;;;;15.32;12.20;;;9.10;99.90;;;;;;2097355;28;20024;-74
2021/03/11 02:33:14;;;;;;;15.65;11.27;;;9.10;99.90;;;;;;2097466;28;20025;-74
2021/03/11 02:34:24;;;;;;;13.95;11.27;;;9.20;99.90;;;;;;2097577;28;20039;-73
2021/03/11 02:35:26;;;;;;;14.40;11.27;;;9.20;99.90;;;;;;2098027;28;20487;-74
2021/03/11 02:36:27;;;;;;;13.30;10.93;;;9.20;99.90;;;;;;2097963;28;20036;-74
2021/03/11 02:37:37;;;;;;;15.43;11.80;;;9.10;99.90;;;;;;2097428;28;20021;-74
2021/03/11 02:38:39;;;;;;;13.98;10.18;;;9.20;99.90;;;;;;2097763;28;20025;-74
2021/03/11 02:39:43;;;;;;;12.52;10.73;;;9.20;99.90;;;;;;2098106;28;20085;-73
2021/03/11 02:40:45;;;;;;;16.27;11.23;;;9.20;99.90;;;;;;2097628;28;20055;-74
2021/03/11 02:41:47;;;;;;;13.88;11.07;;;9.20;99.90;;;;;;2097409;28;20032;-74
2021/03/11 02:42:50;;;;;;;16.30;10.70;;;9.20;99.90;;;;;;2098410;28;20028;-74
2021/03/11 02:43:51;;;;;;;11.07;9.48;;;9.20;99.90;;;;;;2098187;28;20483;-74
2021/03/11 02:44:53;;;;;;;14.27;10.32;;;9.20;99.90;;;;;;2097668;28;20054;-74
2021/03/11 02:45:55;;;;;;;15.98;11.02;;;9.30;99.90;;;;;;2097378;28;20055;-74
2021/03/11 02:46:56;;;;;;;12.18;9.57;;;9.30;99.90;;;;;;2096667;28;20481;-74
2021/03/11 02:48:01;;;;;;;11.73;9.88;;;9.30;99.90;;;;;;2097637;28;20029;-74
2021/03/11 02:49:02;;;;;;;13.70;8.80;;;9.30;99.90;;;;;;2098637;28;20471;-74
2021/03/11 02:50:04;;;;;;;12.55;9.10;;;9.30;99.90;;;;;;2098505;28;20104;-74
2021/03/11 02:51:05;;;;;;;12.05;9.35;;;9.30;99.90;;;;;;2098520;28;20021;-74
2021/03/11 02:52:06;;;;;;;11.13;9.00;;;9.30;99.90;;;;;;2098435;28;20613;-74
2021/03/11 02:53:10;;;;;;;12.38;9.18;;;9.40;99.90;;;;;;2098626;28;20020;-74
2021/03/11 02:54:11;;;;;;;10.43;8.45;;;9.40;99.90;;;;;;2098549;28;20024;-74
2021/03/11 02:55:13;;;;;;;10.30;7.97;;;9.40;99.90;;;;;;2098606;28;20020;-74
2021/03/11 02:56:14;;;;;;;9.48;7.90;;;9.40;99.90;;;;;;2098574;28;20565;-74
2021/03/11 02:57:17;;;;;;;9.65;7.70;;;9.50;99.90;;;;;;2098310;28;20570;-74
2021/03/11 02:58:19;;;;;;;9.75;7.95;;;9.40;99.90;;;;;;2098630;28;20380;-74
2021/03/11 02:59:21;;;;;;;9.75;8.18;;;9.50;99.90;;;;;;2098818;28;20027;-74
2021/03/11 03:00:23;;;;;;;9.93;7.97;;;9.50;99.90;;;;;;2098200;28;20047;-74
2021/03/11 03:01:25;;;;;;;9.23;7.38;;;9.50;99.90;;;;;;2098621;28;20468;-74
2021/03/11 03:02:26;;;;;;;11.45;8.68;;;9.50;99.90;;;;;;2098716;28;20498;-74
2021/03/11 03:03:29;;;;;;;8.88;7.85;;;9.50;99.90;;;;;;2099042;28;20030;-74
2021/03/11 03:04:30;;;;;;;10.15;7.70;;;9.50;99.90;;;;;;2098793;28;20036;-74
2021/03/11 03:05:31;;;;;;;9.35;7.72;;;9.50;99.90;;;;;;2098151;28;20720;-74
2021/03/11 03:06:33;;;;;;;8.95;7.45;;;9.50;99.90;;;;;;2098036;28;20040;-74
2021/03/11 03:07:36;;;;;;;9.88;7.38;;;9.50;99.90;;;;;;2098273;28;20024;-74
2021/03/11 03:08:38;;;;;;;11.80;8.13;;;9.50;99.90;;;;;;2097696;28;20225;-74
2021/03/11 03:09:39;;;;;;;7.97;6.65;;;9.50;99.90;;;;;;2097900;28;20100;-74
2021/03/11 03:10:39;;;;;;;9.48;6.75;;;9.50;99.90;;;;;;2097183;28;20039;-74
2021/03/11 03:11:40;;;;;;;8.63;7.30;;;9.60;99.90;;;;;;2097170;28;20030;-74
2021/03/11 03:12:42;;;;;;;9.07;6.13;;;9.60;99.90;;;;;;2097998;28;20024;-74
2021/03/11 03:13:43;;;;;;;7.75;6.95;;;9.60;99.90;;;;;;2098120;28;20025;-74
2021/03/11 03:14:49;;;;;;;8.52;6.97;;;9.60;99.90;;;;;;2098305;28;20050;-74
2021/03/11 03:15:50;;;;;;;8.48;6.85;;;9.60;99.90;;;;;;2097663;28;20031;-74
2021/03/11 03:16:51;;;;;;;7.00;6.28;;;9.60;99.90;;;;;;2097247;28;20063;-74
2021/03/11 03:17:52;;;;;;;9.05;6.75;;;9.60;99.90;;;;;;2097540;28;20128;-74
2021/03/11 03:18:54;;;;;;;7.53;6.68;;;9.60;99.90;;;;;;2097583;28;20029;-74
2021/03/11 03:19:56;;;;;;;7.50;6.40;;;9.60;99.90;;;;;;2097845;28;20031;-74
2021/03/11 03:20:58;;;;;;;8.82;6.68;;;9.60;99.90;;;;;;2098438;28;20051;-74
2021/03/11 03:21:58;;;;;;;7.68;6.25;;;9.60;99.90;;;;;;2098378;28;20074;-74
2021/03/11 03:23:04;;;;;;;6.97;6.28;;;9.60;99.90;;;;;;2098337;28;20056;-74
2021/03/11 03:24:05;;;;;;;6.40;5.47;;;9.60;99.90;;;;;;2097812;28;20021;-74
2021/03/11 03:25:10;;;;;;;6.90;5.65;;;9.60;99.90;;;;;;2097472;28;20034;-74
2021/03/11 03:26:12;;;;;;;8.15;5.70;;;9.60;99.90;;;;;;2097557;28;20058;-74
2021/03/11 03:27:14;;;;;;;6.93;5.65;;;9.60;99.90;;;;;;2097174;28;20442;-74
2021/03/11 03:28:16;;;;;;;8.38;6.10;;;9.60;99.90;;;;;;2097349;28;20025;-74
2021/03/11 03:29:16;;;;;;;7.38;5.43;;;9.60;99.90;;;;;;2096892;28;20028;-74
2021/03/11 03:30:18;;;;;;;6.82;5.75;;;9.60;99.90;;;;;;2097475;28;20023;-74
2021/03/11 03:31:19;;;;;;;6.72;6.03;;;9.70;99.90;;;;;;2098318;28;20021;-74
2021/03/11 03:32:19;;;;;;;6.40;5.07;;;9.70;99.90;;;;;;2098075;28;20020;-74
2021/03/11 03:33:20;;;;;;;8.77;5.80;;;9.70;99.90;;;;;;2097737;28;20103;-74
2021/03/11 03:34:21;;;;;;;7.57;6.10;;;9.70;99.90;;;;;;2097765;28;20028;-73
2021/03/11 03:35:22;;;;;;;6.50;5.60;;;9.70;99.90;;;;;;2098163;28;20070;-74
2021/03/11 03:36:23;;;;;;;5.47;4.93;;;9.70;99.90;;;;;;2098122;28;20047;-74
2021/03/11 03:37:23;;;;;;;5.88;5.10;;;9.70;99.90;;;;;;2097472;28;20376;-74
2021/03/11 03:38:24;;;;;;;8.93;5.80;;;9.70;99.90;;;;;;2097694;28;20472;-74
2021/03/11 03:39:26;;;;;;;6.20;5.30;;;9.70;99.90;;;;;;2098124;28;20033;-74
2021/03/11 03:40:26;;;;;;;7.03;4.57;;;9.70;99.90;;;;;;2097924;28;20024;-75
2021/03/11 03:41:30;;;;;;;7.10;5.43;;;9.70;99.90;;;;;;2098190;28;20078;-74
2021/03/11 03:42:37;;;;;;;6.00;5.03;;;9.70;99.90;;;;;;2097856;28;20589;-74
2021/03/11 03:43:40;;;;;;;6.65;5.50;;;9.70;99.90;;;;;;2097535;28;20035;-74
2021/03/11 03:44:43;;;;;;;6.95;5.60;;;9.70;99.90;;;;;;2097874;28;20035;-74
2021/03/11 03:45:48;;;;;;;6.68;5.13;;;9.70;99.90;;;;;;2097946;28;20023;-74
2021/03/11 03:46:50;;;;;;;5.80;5.20;;;9.70;99.90;;;;;;2097599;28;20021;-74
2021/03/11 03:47:52;;;;;;;7.50;5.80;;;9.70;99.90;;;;;;2097879;28;20059;-75
2021/03/11 03:48:58;;;;;;;6.57;5.30;;;9.70;99.90;;;;;;2097735;28;20111;-74
2021/03/11 03:49:58;;;;;;;8.73;5.70;;;9.70;99.90;;;;;;2097442;28;20024;-74
2021/03/11 03:50:59;;;;;;;5.32;4.82;;;9.60;99.90;;;;;;2097635;28;20025;-74
2021/03/11 03:52:02;;;;;;;6.70;5.50;;;9.60;99.90;;;;;;2097647;28;20082;-74
2021/03/11 03:53:08;;;;;;;5.80;5.20;;;9.60;99.90;;;;;;2096897;28;20048;-74
2021/03/11 03:54:14;;;;;;;5.88;5.28;;;9.60;99.90;;;;;;2097206;28;20016;-74
2021/03/11 03:55:15;;;;;;;5.75;5.25;;;9.60;99.90;;;;;;2097157;28;20083;-74
2021/03/11 03:56:27;;;;;;;5.53;5.03;;;9.60;99.90;;;;;;2097267;28;20379;-74
2021/03/11 03:57:30;;;;;;;6.25;5.57;;;9.60;99.90;;;;;;2097380;28;20026;-74
2021/03/11 03:58:31;;;;;;;5.55;4.90;;;9.60;99.90;;;;;;2097524;28;20029;-74
2021/03/11 03:59:37;;;;;;;5.78;5.28;;;9.60;99.90;;;;;;2098048;28;20027;-74
2021/03/11 04:00:37;;;;;;;7.60;5.63;;;9.60;99.90;;;;;;2097911;28;20020;-74
2021/03/11 04:01:39;;;;;;;10.10;5.53;;;9.50;99.90;;;;;;2097593;28;20031;-74
2021/03/11 04:02:41;;;;;;;6.38;5.55;;;9.50;99.90;;;;;;2097334;28;20032;-74
2021/03/11 04:03:42;;;;;;;5.78;5.18;;;9.50;99.90;;;;;;2096904;28;20384;-74
2021/03/11 04:04:47;;;;;;;6.53;5.47;;;9.50;99.90;;;;;;2096554;28;20021;-74
2021/03/11 04:05:49;;;;;;;5.68;5.15;;;9.50;99.90;;;;;;2096946;28;20108;-74
2021/03/11 04:06:51;;;;;;;5.80;4.90;;;9.50;99.90;;;;;;2096302;28;20035;-74
2021/03/11 04:07:53;;;;;;;6.35;5.75;;;9.50;99.90;;;;;;2096686;28;20032;-74
2021/03/11 04:08:55;;;;;;;5.15;4.53;;;9.50;99.90;;;;;;2096467;28;20025;-74
2021/03/11 04:09:57;;;;;;;7.68;5.50;;;9.50;99.90;;;;;;2097058;28;20070;-74
2021/03/11 04:10:58;;;;;;;5.57;5.00;;;9.50;99.90;;;;;;2096160;28;20475;-74
2021/03/11 04:11:59;;;;;;;5.90;5.05;;;9.50;99.90;;;;;;2087540;28;20039;-74
2021/03/11 04:13:00;;;;;;;5.63;5.13;;;9.50;99.90;;;;;;2095781;28;20530;-74
2021/03/11 04:14:04;;;;;;;8.75;5.65;;;9.50;99.90;;;;;;2096862;28;20698;-74
2021/03/11 04:15:06;;;;;;;5.93;5.43;;;9.50;99.90;;;;;;2096455;28;20028;-74
2021/03/11 04:16:07;;;;;;;6.38;5.60;;;9.50;99.90;;;;;;2096560;28;20021;-74
2021/03/11 04:17:08;;;;;;;5.75;5.25;;;9.50;99.90;;;;;;2096183;28;20028;-74
2021/03/11 04:18:11;;;;;;;6.32;5.65;;;9.50;99.90;;;;;;2096811;28;20111;-74
2021/03/11 04:19:13;;;;;;;7.18;4.88;;;9.40;99.90;;;;;;2096734;28;20048;-74
2021/03/11 04:20:14;;;;;;;6.03;5.43;;;9.40;99.90;;;;;;2096474;28;20028;-74
2021/03/11 04:21:15;;;;;;;6.20;5.60;;;9.40;99.90;;;;;;2096573;28;20047;-75
2021/03/11 04:22:16;;;;;;;5.20;4.72;;;9.40;99.90;;;;;;2096892;28;20364;-74
2021/03/11 04:23:17;;;;;;;5.85;5.15;;;9.40;99.90;;;;;;2096453;28;20024;-75
2021/03/11 04:24:19;;;;;;;7.75;5.68;;;9.40;99.90;;;;;;2096416;28;20565;-74
2021/03/11 04:25:20;;;;;;;5.53;4.95;;;9.40;99.90;;;;;;2097189;28;20507;-74
2021/03/11 04:26:21;;;;;;;5.82;5.32;;;9.40;99.90;;;;;;2096639;28;20017;-74
2021/03/11 04:27:22;;;;;;;6.05;5.45;;;9.40;99.90;;;;;;2096198;28;20039;-74
2021/03/11 04:28:24;;;;;;;5.90;5.30;;;9.40;99.90;;;;;;2096616;28;20082;-75
2021/03/11 04:29:25;;;;;;;6.53;5.88;;;9.40;99.90;;;;;;2096986;28;20796;-74
2021/03/11 04:30:25;;;;;;;5.88;5.18;;;9.40;99.90;;;;;;2096978;28;20021;-74
2021/03/11 04:31:27;;;;;;;6.45;5.38;;;9.40;99.90;;;;;;2097110;28;20024;-74
2021/03/11 04:32:27;;;;;;;5.93;5.30;;;9.40;99.90;;;;;;2096127;28;20026;-74
2021/03/11 04:33:29;;;;;;;8.02;5.25;;;9.40;99.90;;;;;;2096318;28;20021;-74
2021/03/11 04:34:30;;;;;;;6.28;5.68;;;9.40;99.90;;;;;;2096815;28;20028;-74
2021/03/11 04:35:30;;;;;;;6.53;5.20;;;9.40;99.90;;;;;;2096951;28;20024;-74
2021/03/11 04:36:33;;;;;;;6.00;5.50;;;9.40;99.90;;;;;;2096898;28;20529;-74
2021/03/11 04:37:34;;;;;;;5.43;4.93;;;9.40;99.90;;;;;;2096094;28;20399;-74
2021/03/11 04:38:35;;;;;;;5.50;5.00;;;9.40;99.90;;;;;;2095786;28;20032;-74
2021/03/11 04:39:37;;;;;;;6.18;5.57;;;9.40;99.90;;;;;;2096488;28;20059;-74
2021/03/11 04:40:37;;;;;;;6.75;5.75;;;9.40;99.90;;;;;;2096859;28;20024;-74
2021/03/11 04:41:38;;;;;;;5.88;5.25;;;9.40;99.90;;;;;;2096862;28;20028;-74
2021/03/11 04:42:39;;;;;;;6.40;5.70;;;9.40;99.90;;;;;;2097033;28;20208;-74
2021/03/11 04:43:41;;;;;;;6.50;5.82;;;9.40;99.90;;;;;;2096886;28;20530;-74
2021/03/11 04:44:42;;;;;;;6.22;5.32;;;9.40;99.90;;;;;;2096767;28;20029;-74
2021/03/11 04:45:44;;;;;;;6.30;5.70;;;9.40;99.90;;;;;;2096889;28;20025;-74
2021/03/11 04:46:45;;;;;;;5.75;5.22;;;9.40;99.90;;;;;;2096452;28;20029;-75
2021/03/11 04:47:47;;;;;;;6.18;5.57;;;9.40;99.90;;;;;;2096191;28;20024;-74
2021/03/11 04:48:49;;;;;;;6.68;5.57;;;9.40;99.90;;;;;;2087796;28;20021;-74
2021/03/11 04:49:50;;;;;;;8.50;5.95;;;9.40;99.90;;;;;;2096329;28;20030;-74
2021/03/11 04:50:50;;;;;;;6.15;5.55;;;9.50;99.90;;;;;;2096901;28;20387;-74
2021/03/11 04:51:52;;;;;;;5.72;4.95;;;9.50;99.90;;;;;;2096416;28;20017;-74
2021/03/11 04:52:53;;;;;;;6.57;5.93;;;9.50;99.90;;;;;;2096268;28;20027;-74
2021/03/11 04:53:55;;;;;;;6.60;5.72;;;9.50;99.90;;;;;;2096610;28;20066;-74
2021/03/11 04:54:56;;;;;;;5.60;5.10;;;9.50;99.90;;;;;;2096544;28;20035;-74
2021/03/11 04:55:57;;;;;;;5.63;5.03;;;9.50;99.90;;;;;;2096278;28;20140;-74
2021/03/11 04:56:58;;;;;;;6.40;5.78;;;9.50;99.90;;;;;;2095649;28;20031;-74
2021/03/11 04:57:59;;;;;;;7.85;6.13;;;9.50;99.90;;;;;;2097557;28;20157;-74
2021/03/11 04:59:00;;;;;;;6.18;5.35;;;9.50;99.90;;;;;;2095994;28;20076;-74
2021/03/11 05:00:02;;;;;;;7.15;5.40;;;9.50;99.90;;;;;;2096395;28;20472;-75
2021/03/11 05:01:10;;;;;;;6.53;5.78;;;9.50;99.90;;;;;;2096083;28;20016;-74
2021/03/11 05:02:11;;;;;;;6.65;5.85;;;9.50;99.90;;;;;;2096540;28;20070;-74
2021/03/11 05:03:13;;;;;;;5.72;4.68;;;9.50;99.90;;;;;;2096783;28;20021;-74
2021/03/11 05:04:14;;;;;;;5.05;4.63;;;9.50;99.90;;;;;;2096049;28;20376;-75
2021/03/11 05:05:33;;;;;;;6.80;5.95;;;9.50;99.90;;;;;;2096381;28;20337;-74
2021/03/11 05:06:34;;;;;;;5.28;4.80;;;9.50;99.90;;;;;;2096630;28;20380;-74
2021/03/11 05:07:34;;;;;;;8.10;5.70;;;9.50;99.90;;;;;;2096446;28;20104;-74
2021/03/11 05:08:35;;;;;;;6.70;6.10;;;9.50;99.90;;;;;;2096122;28;20028;-74
2021/03/11 05:09:35;;;;;;;5.53;5.03;;;9.60;99.90;;;;;;2096507;28;20032;-74
2021/03/11 05:10:39;;;;;;;5.80;5.30;;;9.60;99.90;;;;;;2096324;28;20378;-74
2021/03/11 05:11:42;;;;;;;6.63;5.43;;;9.60;99.90;;;;;;2096510;28;20028;-74
2021/03/11 05:12:42;;;;;;;5.00;4.60;;;9.60;99.90;;;;;;2096730;28;20021;-74
2021/03/11 05:13:43;;;;;;;5.95;5.35;;;9.60;99.90;;;;;;2096580;28;20108;-74
2021/03/11 05:14:44;;;;;;;5.88;5.25;;;9.60;99.90;;;;;;2096112;28;20028;-74
2021/03/11 05:15:44;;;;;;;6.32;5.18;;;9.60;99.90;;;;;;2096097;28;20094;-74
2021/03/11 05:16:45;;;;;;;5.53;4.97;;;9.60;99.90;;;;;;2096517;28;20023;-74
2021/03/11 05:17:45;;;;;;;7.55;5.78;;;9.60;99.90;;;;;;2096945;28;20027;-74
2021/03/11 05:18:46;;;;;;;7.22;4.97;;;9.60;99.90;;;;;;2096533;28;20033;-74
2021/03/11 05:19:46;;;;;;;6.40;4.57;;;9.60;99.90;;;;;;2097001;28;20021;-74
2021/03/11 05:20:47;;;;;;;5.63;5.13;;;9.60;99.90;;;;;;2096623;28;20539;-74
2021/03/11 05:21:48;;;;;;;7.70;5.47;;;9.60;99.90;;;;;;2096203;28;20425;-74
2021/03/11 05:22:49;;;;;;;7.32;5.60;;;9.70;99.90;;;;;;2096692;28;20021;-74
2021/03/11 05:23:50;;;;;;;8.05;5.63;;;9.70;99.90;;;;;;2097658;28;20035;-74
2021/03/11 05:24:51;;;;;;;7.57;5.10;;;9.70;99.90;;;;;;2098412;28;20020;-74
2021/03/11 05:25:53;;;;;;;6.00;5.40;;;9.70;99.90;;;;;;2098551;28;20563;-74